الصفحة الرئيسية
METAR-TAF:

METAR-TAF

مطار :

تانابا, اليابان

دائرة عرض: 33-44N, خط طول: 135-23E, ارتفاع: 105 متر

مراقبة الطقس الحالي

تاريخ ووقت الإصدار 22 دقيقة قبل الساعة 03:00UTC
ريح 8 عقدة من الجنوب, الاتجاه يتراوح بين الجنوب/الجنوب الشرقي و الجنوب الغربي
درجة الحرارة 25°درجة مئوية
الرطوبة 83%
ضغط 1010 hPa
الرؤية 10 كم أو أكثر
غيوم قليلة على ارتفاع 2000 قدم
غيوم متفرقة على ارتفاع 5000 قدم
غيوم مفككة

METAR: RJBD 170300Z 19008KT 160V220 9999 FEW020 SCT050 BKN/// 25/22 Q1010

زمن: 12:22 (03:22 UTC)


TAF: مفقودة

أرصاد الطقس والتوقعات من أكثر من 4000 مطار (تقارير الطقس للمطار METAR والتنبؤ بالطقس بالمطارTAF).

المحطات المتاحة هي النقط الصفراء والحمراء على الخريطة.

حرك المؤشر فوق النقطة لمعرفة اسم المحطة.

ثم انقر لمعرفة أرصاد وتوقعات الطقس.

لتغيير الخارطة: اضغط على الأزرار الخضراء مع رمز الصليب الأسود للتكبير. على الزر الأخضر مع شرطة للتصغير، أو على الأسهم الخضراء للخرائط المجاورة.


METAR-TAF: